• Join FlightAware (Why Join?)
  • Login
  • US Flag 
02:48PM EDT


 

Airport Tracker/Info


-or-


 

Live Flight TrackerFlight Track Log ✈ N201LH ✈ 11-May-2013 ✈ KBKL - KHYX

Flight Track Log - Related Links

Times and Time Zones

All times are in EDT time to prevent confusion due to time zone crossing. See the N201LH flight status page for this flight to view local times or setup timezone preferences in your user account.

Time Position Orientation Groundspeed Altitude Reporting Facility
EDT Latitude Longitude Course Direction KTS MPH feet Rate Location/Type
05:19PM 41.5167 -81.6950 339° North 75 86 1,200  Level Cleveland Center
05:20PM 41.5397 -81.7067 339° North 106 122 1,900 600 Climbing Cleveland Center
05:20PM 41.5481 -81.7094 346° North 125 144 2,000 60 Climbing Cleveland Center
05:21PM 41.5811 -81.7211 345° North 150 173 2,000 240 Level Cleveland Center
05:22PM 41.6250 -81.7275 354° North 154 177 2,500 660 Climbing Cleveland Center
05:23PM 41.6622 -81.7339 353° North 147 169 3,500 780 Climbing Cleveland Center
05:24PM 41.6936 -81.7400 352° North 123 142 4,300 720 Climbing Cleveland Center
05:25PM 41.7228 -81.7433 355° North 118 136 5,000 600 Climbing Cleveland Center
05:26PM 41.7433 -81.7631 324° Northwest 98 113 5,600 540 Climbing Cleveland Center
05:27PM 41.7556 -81.7939 298° West 86 99 6,100 240 Climbing Cleveland Center
05:28PM 41.7739 -81.8306 304° West 108 124 6,100  Level Cleveland Center
05:29PM 41.7922 -81.8725 300° West 120 138 6,100  Level Cleveland Center
05:30PM 41.8125 -81.9147 303° West 125 144 6,100  Level Cleveland Center
05:31PM 41.8331 -81.9514 307° West 125 144 6,100  Level Cleveland Center
05:32PM 41.8511 -81.9964 298° West 125 144 6,100  Level Cleveland Center
05:33PM 41.8736 -82.0417 304° West 125 144 6,100  Level Cleveland Center
05:34PM 41.8919 -82.0783 304° West 125 144 6,100  Level Cleveland Center
05:35PM 41.9122 -82.1206 303° West 130 150 6,100  Level Cleveland Center
05:36PM 41.9303 -82.1600 302° West 130 150 6,100  Level Cleveland Center
05:37PM 41.9528 -82.2025 305° West 130 150 6,100  Level Cleveland Center
05:38PM 41.9608 -82.2222 299° West 129 148 6,100  Level Cleveland Center
05:38PM 41.9689 -82.2447 296° West 130 150 6,100  Level Cleveland Center
05:39PM 41.9831 -82.2619 318° Northwest 126 145 6,100  Level Cleveland Center
05:39PM 41.9892 -82.2817 293° West 125 144 6,100  Level Cleveland Center
05:40PM 42.0033 -82.3100 304° West 125 144 6,100  Level Cleveland Center
05:40PM 42.0092 -82.3214 305° West 125 144 6,100  Level Cleveland Center
05:41PM 42.0233 -82.3497 304° West 125 144 6,100  Level Cleveland Center
05:41PM 42.0297 -82.3583 315° West 125 144 6,100  Level Cleveland Center
05:42PM 42.0542 -82.3786 328° Northwest 137 158 6,100  Level Cleveland Center
05:42PM 42.0606 -82.3842 327° Northwest 125 144 6,100  Level Cleveland Center
05:43PM 42.0808 -82.4072 320° Northwest 129 148 6,100  Level Cleveland Center
05:43PM 42.0869 -82.4158 314° West 125 144 6,100  Level Cleveland Center
05:44PM 42.1097 -82.4389 323° Northwest 129 148 6,100  Level Cleveland Center
05:44PM 42.1178 -82.4475 322° Northwest 130 150 6,100  Level Cleveland Center
05:45PM 42.1364 -82.4647 326° Northwest 135 155 6,100  Level Cleveland Center
05:45PM 42.1464 -82.4764 319° Northwest 135 155 6,100  Level Cleveland Center
05:46PM 42.1650 -82.4936 326° Northwest 133 153 6,100  Level Cleveland Center
05:46PM 42.1753 -82.5081 314° West 135 155 6,100  Level Cleveland Center
05:47PM 42.1956 -82.5283 323° Northwest 131 151 6,100  Level Cleveland Center
05:47PM 42.2039 -82.5397 315° West 130 150 6,100  Level Cleveland Center
05:48PM 42.2306 -82.5631 327° Northwest 134 154 6,100  Level Cleveland Center
05:49PM 42.2611 -82.5975 320° Northwest 132 152 6,100  Level Cleveland Center
05:50PM 42.2817 -82.6178 324° Northwest 134 154 6,100  Level Cleveland Center
05:51PM 42.3061 -82.6467 319° Northwest 134 154 6,100  Level Cleveland Center
05:52PM 42.3408 -82.6844 321° Northwest 135 155 6,100  Level Cleveland Center
05:53PM 42.3717 -82.7136 325° Northwest 135 155 6,100  Level Cleveland Center
05:54PM 42.4022 -82.7456 322° Northwest 133 153 6,100  Level Cleveland Center
05:55PM 42.4289 -82.7744 321° Northwest 129 148 6,100  Level Cleveland Center
05:56PM 42.4614 -82.8122 319° Northwest 133 153 6,100  Level Cleveland Center
05:57PM 42.4881 -82.8358 327° Northwest 129 148 6,100  Level Cleveland Center
05:58PM 42.5186 -82.8706 320° Northwest 133 153 6,100  Level Cleveland Center
05:59PM 42.5472 -82.9000 323° Northwest 135 155 6,100  Level Cleveland Center
06:00PM 42.5778 -82.9375 318° Northwest 135 155 6,100  Level Cleveland Center
06:01PM 42.6106 -82.9669 327° Northwest 136 157 6,100 -60 Level Cleveland Center
06:02PM 42.6411 -83.0022 320° Northwest 137 158 6,000  Descending Cleveland Center
06:03PM 42.6717 -83.0372 320° Northwest 143 165 6,100  Climbing Cleveland Center
06:04PM 42.7003 -83.0664 323° Northwest 151 174 6,100  Level Cleveland Center
06:05PM 42.7347 -83.1019 323° Northwest 145 167 6,100  Level Cleveland Center
06:06PM 42.7714 -83.1428 321° Northwest 153 176 6,100 -180 Level Cleveland Center
06:07PM 42.8061 -83.1783 323° Northwest 150 173 5,800 -360 Descending Cleveland Center
06:08PM 42.8367 -83.2136 320° Northwest 160 184 5,400 -540 Descending Cleveland Center
06:09PM 42.8753 -83.2519 324° Northwest 150 173 4,800 -600 Descending Cleveland Center
06:10PM 42.9097 -83.2903 321° Northwest 156 180 4,200 -360 Descending Cleveland Center
06:11PM 42.9422 -83.3258 321° Northwest 149 171 4,100 -60 Descending Cleveland Center
06:12PM 42.9708 -83.3583 320° Northwest 136 157 4,100  Level Cleveland Center
06:13PM 43.0075 -83.3939 325° Northwest 140 161 4,100  Level Cleveland Center
06:14PM 43.0381 -83.4153 333° Northwest 160 184 4,100  Level Cleveland Center
06:15PM 43.0883 -83.4061 North 159 183 4,100  Level Cleveland Center
06:16PM 43.1219 -83.3992 North 160 184 4,100  Level Cleveland Center
06:17PM 43.1700 -83.3928 North 162 186 4,100 -300 Level Cleveland Center
06:18PM 43.2181 -83.3922 360° North 166 191 3,600 -600 Descending Cleveland Center
06:19PM 43.2419 -83.4303 311° West 132 152 3,000 -480 Descending Cleveland Center
06:20PM 43.2642 -83.4683 309° West 123 142 2,700 -120 Descending Cleveland Center
06:21PM 43.2842 -83.5008 310° West 117 135 2,800 60 Climbing Cleveland Center
06:24PM 43.3252 -83.5999 314° West  Level Estimated
06:31PM 43.4333 -83.8500 324° Northwest  Level FlightAware Approximate
06:32PM 43.4334 -83.8623 324° Northwest  Level Estimated
06:33PM 43.4334 -83.8623 324° Northwest  Level Estimated
06:34PM 43.4334 -83.8623 324° Northwest  Level Estimated
06:35PM 43.4334 -83.8623 324° Northwest  Level Estimated
06:36PM 43.4334 -83.8623 324° Northwest  Level Estimated